createdAt,value
2016-10-29T00:00:09.456Z,982.65
2016-10-29T00:01:18.158Z,982.66
2016-10-29T00:02:26.860Z,982.68
2016-10-29T00:03:35.562Z,982.71
2016-10-29T00:04:44.253Z,982.69
2016-10-29T00:05:52.987Z,982.73
2016-10-29T00:07:01.683Z,982.75
2016-10-29T00:08:10.375Z,982.76
2016-10-29T00:09:19.071Z,982.72
2016-10-29T00:10:27.767Z,982.78
2016-10-29T00:11:36.461Z,982.83
2016-10-29T00:12:45.154Z,982.76
2016-10-29T00:13:53.847Z,982.73
2016-10-29T00:15:02.541Z,982.65
2016-10-29T00:16:11.235Z,982.65
2016-10-29T00:17:19.934Z,982.65
2016-10-29T00:18:28.630Z,982.65
2016-10-29T00:19:37.329Z,982.67
2016-10-29T00:20:46.035Z,982.65
2016-10-29T00:21:54.737Z,982.68
2016-10-29T00:23:03.436Z,982.69
2016-10-29T00:24:12.165Z,982.72
2016-10-29T00:25:20.879Z,982.7
2016-10-29T00:26:29.572Z,982.75
2016-10-29T00:27:38.271Z,982.79
2016-10-29T00:28:46.968Z,982.78
2016-10-29T00:29:55.666Z,982.79
2016-10-29T00:31:04.366Z,982.83
2016-10-29T00:32:13.063Z,982.85
2016-10-29T00:33:21.754Z,982.85
2016-10-29T00:34:30.446Z,982.8
2016-10-29T00:35:39.137Z,982.8
2016-10-29T00:36:47.830Z,982.78
2016-10-29T00:37:56.525Z,982.75
2016-10-29T00:39:05.217Z,982.71
2016-10-29T00:40:14.233Z,982.78
2016-10-29T00:41:22.931Z,982.76
2016-10-29T00:42:31.634Z,982.83
2016-10-29T00:43:40.328Z,982.84
2016-10-29T00:44:49.058Z,982.85
2016-10-29T00:45:57.753Z,982.82
2016-10-29T00:47:06.449Z,982.74
2016-10-29T00:48:15.141Z,982.77
2016-10-29T00:49:23.837Z,982.75
2016-10-29T00:50:32.534Z,982.74
2016-10-29T00:51:41.236Z,982.76
2016-10-29T00:52:49.932Z,982.83
2016-10-29T00:53:58.622Z,982.84
2016-10-29T00:55:07.315Z,982.87
2016-10-29T00:56:16.012Z,982.9
2016-10-29T00:57:24.707Z,982.85
2016-10-29T00:58:33.402Z,982.81
2016-10-29T00:59:42.102Z,982.89
2016-10-29T01:00:50.807Z,982.86
2016-10-29T01:01:59.499Z,982.92
2016-10-29T01:03:08.190Z,982.95
2016-10-29T01:04:16.895Z,982.88
2016-10-29T01:05:25.586Z,982.93
2016-10-29T01:06:34.289Z,982.89
2016-10-29T01:07:42.990Z,982.92
2016-10-29T01:08:51.683Z,982.96
2016-10-29T01:10:00.708Z,982.92
2016-10-29T01:11:09.436Z,982.91
2016-10-29T01:12:18.137Z,983
2016-10-29T01:13:26.834Z,982.93
2016-10-29T01:14:35.539Z,983.01
2016-10-29T01:15:44.244Z,983.01
2016-10-29T01:16:52.985Z,983
2016-10-29T01:18:01.677Z,982.99
2016-10-29T01:19:10.371Z,982.99
2016-10-29T01:20:19.084Z,983.04
2016-10-29T01:21:27.790Z,983.12
2016-10-29T01:22:36.481Z,983.14
2016-10-29T01:23:45.175Z,983.17
2016-10-29T01:24:53.874Z,983.25
2016-10-29T01:26:02.576Z,983.25
2016-10-29T01:27:11.268Z,983.27
2016-10-29T01:28:19.960Z,983.29
2016-10-29T01:29:28.681Z,983.43
2016-10-29T01:30:37.387Z,983.48
2016-10-29T01:31:46.121Z,983.44
2016-10-29T01:32:54.815Z,983.45
2016-10-29T01:34:03.525Z,983.44
2016-10-29T01:35:12.220Z,983.48
2016-10-29T01:36:20.915Z,983.44
2016-10-29T01:37:29.646Z,983.46
2016-10-29T01:38:38.337Z,983.49
2016-10-29T01:39:47.034Z,983.51
2016-10-29T01:40:55.730Z,983.5
2016-10-29T01:42:04.461Z,983.56
2016-10-29T01:43:13.156Z,983.54
2016-10-29T01:44:22.165Z,983.55
2016-10-29T01:45:30.907Z,983.55
2016-10-29T01:46:39.624Z,983.55
2016-10-29T01:47:48.322Z,983.59
2016-10-29T01:48:57.015Z,983.59
2016-10-29T01:50:05.711Z,983.6
2016-10-29T01:51:14.407Z,983.57
2016-10-29T01:52:23.161Z,983.6
2016-10-29T01:53:31.859Z,983.6
2016-10-29T01:54:40.554Z,983.58
2016-10-29T01:55:49.291Z,983.62
2016-10-29T01:56:57.982Z,983.63
2016-10-29T01:58:06.673Z,983.66
2016-10-29T01:59:15.368Z,983.67
2016-10-29T02:00:24.105Z,983.67
2016-10-29T02:01:32.799Z,983.66
2016-10-29T02:02:41.495Z,983.66
2016-10-29T02:03:50.203Z,983.64
2016-10-29T02:04:58.896Z,983.68
2016-10-29T02:06:07.595Z,983.68
2016-10-29T02:07:16.295Z,983.7
2016-10-29T02:08:24.986Z,983.71
2016-10-29T02:09:33.680Z,983.78
2016-10-29T02:10:42.376Z,983.75
2016-10-29T02:11:51.072Z,983.75
2016-10-29T02:12:59.765Z,983.78
2016-10-29T02:14:08.468Z,983.7
2016-10-29T02:15:17.181Z,983.77
2016-10-29T02:16:25.874Z,983.73
2016-10-29T02:17:34.571Z,983.81
2016-10-29T02:18:43.270Z,983.77
2016-10-29T02:19:51.965Z,983.75
2016-10-29T02:21:00.969Z,983.82
2016-10-29T02:22:09.665Z,983.81
2016-10-29T02:23:18.356Z,983.79
2016-10-29T02:24:27.052Z,983.82
2016-10-29T02:25:35.756Z,983.83
2016-10-29T02:26:44.496Z,983.86
2016-10-29T02:27:53.192Z,983.84
2016-10-29T02:29:01.884Z,983.86
2016-10-29T02:30:10.581Z,983.87
2016-10-29T02:31:19.276Z,983.93
2016-10-29T02:32:27.972Z,984
2016-10-29T02:33:36.668Z,984.02
2016-10-29T02:34:45.368Z,984.06
2016-10-29T02:35:54.098Z,984.12
2016-10-29T02:37:02.795Z,984.12
2016-10-29T02:38:11.489Z,984.12
2016-10-29T02:39:20.208Z,984.09
2016-10-29T02:40:28.901Z,984.11
2016-10-29T02:41:37.632Z,984.1
2016-10-29T02:42:46.329Z,984.05
2016-10-29T02:43:55.025Z,984.05
2016-10-29T02:45:04.036Z,984.08
2016-10-29T02:46:12.765Z,984.11
2016-10-29T02:47:21.463Z,984.14
2016-10-29T02:48:30.158Z,984.17
2016-10-29T02:49:38.854Z,984.18
2016-10-29T02:50:47.551Z,984.16
2016-10-29T02:51:56.244Z,984.18
2016-10-29T02:53:04.938Z,984.24
2016-10-29T02:54:13.637Z,984.26
2016-10-29T02:55:22.329Z,984.22
2016-10-29T02:56:31.030Z,984.18
2016-10-29T02:57:39.727Z,984.17
2016-10-29T02:58:48.424Z,984.15
2016-10-29T02:59:57.117Z,984.18
2016-10-29T03:01:05.815Z,984.2
2016-10-29T03:02:14.508Z,984.22
2016-10-29T03:03:23.205Z,984.21
2016-10-29T03:04:31.903Z,984.27
2016-10-29T03:05:40.605Z,984.27
2016-10-29T03:06:49.303Z,984.29
2016-10-29T03:07:58.004Z,984.32
2016-10-29T03:09:06.698Z,984.33
2016-10-29T03:10:15.398Z,984.35
2016-10-29T03:11:24.102Z,984.36
2016-10-29T03:12:32.802Z,984.36
2016-10-29T03:13:41.495Z,984.4
2016-10-29T03:14:50.190Z,984.47
2016-10-29T03:15:58.886Z,984.45
2016-10-29T03:17:07.584Z,984.49
2016-10-29T03:18:16.278Z,984.47
2016-10-29T03:19:24.972Z,984.58
2016-10-29T03:20:33.677Z,984.57
2016-10-29T03:21:42.378Z,984.55
2016-10-29T03:22:51.078Z,984.5
2016-10-29T03:23:59.775Z,984.43
2016-10-29T03:25:08.471Z,984.45
2016-10-29T03:26:17.176Z,984.47
2016-10-29T03:27:25.868Z,984.49
2016-10-29T03:28:34.557Z,984.46
2016-10-29T03:29:43.255Z,984.48
2016-10-29T03:30:51.948Z,984.45
2016-10-29T03:32:00.647Z,984.44
2016-10-29T03:33:09.340Z,984.46
2016-10-29T03:34:18.034Z,984.46
2016-10-29T03:35:26.741Z,984.47
2016-10-29T03:36:35.439Z,984.45
2016-10-29T03:37:44.136Z,984.45
2016-10-29T03:38:52.835Z,984.5
2016-10-29T03:40:01.857Z,984.5
2016-10-29T03:41:10.552Z,984.44
2016-10-29T03:42:19.274Z,984.42
2016-10-29T03:43:27.971Z,984.41
2016-10-29T03:44:36.670Z,984.45
2016-10-29T03:45:45.357Z,984.46
2016-10-29T03:46:54.049Z,984.52
2016-10-29T03:48:02.752Z,984.5
2016-10-29T03:49:11.458Z,984.5
2016-10-29T03:50:20.155Z,984.55
2016-10-29T03:51:28.850Z,984.53
2016-10-29T03:52:37.547Z,984.45
2016-10-29T03:53:46.256Z,984.46
2016-10-29T03:54:54.951Z,984.5
2016-10-29T03:56:03.645Z,984.45
2016-10-29T03:57:12.654Z,984.49
2016-10-29T03:58:21.353Z,984.5
2016-10-29T03:59:30.044Z,984.56
2016-10-29T04:00:38.741Z,984.56
2016-10-29T04:01:47.442Z,984.59
2016-10-29T04:02:56.134Z,984.6
2016-10-29T04:04:04.836Z,984.6
2016-10-29T04:05:13.526Z,984.58
2016-10-29T04:06:22.220Z,984.66
2016-10-29T04:07:30.957Z,984.63
2016-10-29T04:08:39.649Z,984.62
2016-10-29T04:09:48.341Z,984.62
2016-10-29T04:10:57.038Z,984.67
2016-10-29T04:12:05.772Z,984.74
2016-10-29T04:13:14.471Z,984.75
2016-10-29T04:14:23.174Z,984.76
2016-10-29T04:15:31.875Z,984.83
2016-10-29T04:16:40.572Z,984.89
2016-10-29T04:17:49.272Z,984.89
2016-10-29T04:18:57.971Z,984.89
2016-10-29T04:20:06.667Z,984.91
2016-10-29T04:21:15.367Z,984.92
2016-10-29T04:22:24.060Z,984.92
2016-10-29T04:23:32.754Z,984.93
2016-10-29T04:24:41.454Z,984.99
2016-10-29T04:25:50.143Z,984.98
2016-10-29T04:26:58.842Z,984.98
2016-10-29T04:28:07.541Z,985.03
2016-10-29T04:29:16.241Z,985.01
2016-10-29T04:30:24.936Z,984.99
2016-10-29T04:31:33.631Z,984.99
2016-10-29T04:32:42.365Z,984.96
2016-10-29T04:33:51.064Z,984.97
2016-10-29T04:34:59.756Z,984.99
2016-10-29T04:36:08.453Z,984.93
2016-10-29T04:37:17.154Z,985.04
2016-10-29T04:38:25.854Z,985.01
2016-10-29T04:39:34.552Z,984.98
2016-10-29T04:40:43.251Z,984.99
2016-10-29T04:41:51.948Z,985.07
2016-10-29T04:43:00.641Z,985.07
2016-10-29T04:44:09.338Z,985.1
2016-10-29T04:45:18.033Z,985.12
2016-10-29T04:46:26.772Z,985.06
2016-10-29T04:47:35.472Z,985.09
2016-10-29T04:48:44.159Z,985.11
2016-10-29T04:49:52.853Z,985.05
2016-10-29T04:51:01.557Z,985.02
2016-10-29T04:52:10.257Z,985.01
2016-10-29T04:53:18.954Z,985.05
2016-10-29T04:54:27.649Z,985.03
2016-10-29T04:55:36.341Z,985
2016-10-29T04:56:45.036Z,985
2016-10-29T04:57:53.729Z,985.05
2016-10-29T04:59:02.426Z,985.09
2016-10-29T05:00:11.118Z,985.08
2016-10-29T05:01:19.819Z,985.14
2016-10-29T05:02:28.510Z,985.14
2016-10-29T05:03:37.239Z,985.19
2016-10-29T05:04:45.988Z,985.21
2016-10-29T05:05:54.684Z,985.23
2016-10-29T05:07:03.422Z,985.17
2016-10-29T05:08:12.121Z,985.28
2016-10-29T05:09:20.817Z,985.27
2016-10-29T05:10:29.515Z,985.3
2016-10-29T05:11:38.215Z,985.28
2016-10-29T05:12:46.911Z,985.22
2016-10-29T05:13:55.613Z,985.21
2016-10-29T05:15:04.310Z,985.19
2016-10-29T05:16:13.010Z,985.23
2016-10-29T05:17:21.707Z,985.22
2016-10-29T05:18:30.400Z,985.18
2016-10-29T05:19:39.090Z,985.25
2016-10-29T05:20:47.785Z,985.27
2016-10-29T05:21:56.480Z,985.21
2016-10-29T05:23:05.172Z,985.18
2016-10-29T05:24:13.869Z,985.25
2016-10-29T05:25:22.560Z,985.22
2016-10-29T05:26:31.251Z,985.24
2016-10-29T05:27:39.939Z,985.22
2016-10-29T05:28:48.636Z,985.24
2016-10-29T05:29:57.641Z,985.27
2016-10-29T05:31:06.336Z,985.22
2016-10-29T05:32:15.030Z,985.21
2016-10-29T05:33:23.721Z,985.22
2016-10-29T05:34:32.423Z,985.21
2016-10-29T05:35:41.127Z,985.22
2016-10-29T05:36:49.825Z,985.26
2016-10-29T05:37:58.514Z,985.35
2016-10-29T05:39:07.207Z,985.37
2016-10-29T05:40:15.897Z,985.32
2016-10-29T05:41:24.591Z,985.39
2016-10-29T05:42:33.288Z,985.39
2016-10-29T05:43:42.027Z,985.42
2016-10-29T05:44:50.727Z,985.4
2016-10-29T05:45:59.422Z,985.29
2016-10-29T05:47:08.121Z,985.36
2016-10-29T05:48:16.815Z,985.32
2016-10-29T05:49:25.509Z,985.4
2016-10-29T05:50:34.206Z,985.35
2016-10-29T05:51:42.904Z,985.43
2016-10-29T05:52:51.601Z,985.47
2016-10-29T05:54:00.296Z,985.5
2016-10-29T05:55:08.985Z,985.48
2016-10-29T05:56:17.716Z,985.51
2016-10-29T05:57:26.410Z,985.48
2016-10-29T05:58:35.148Z,985.54
2016-10-29T05:59:43.840Z,985.51
2016-10-29T06:00:52.571Z,985.49
2016-10-29T06:02:01.310Z,985.48
2016-10-29T06:03:10.004Z,985.5
2016-10-29T06:04:18.699Z,985.43
2016-10-29T06:05:27.395Z,985.48
2016-10-29T06:06:36.085Z,985.48
2016-10-29T06:07:44.813Z,985.56
2016-10-29T06:08:53.515Z,985.53
2016-10-29T06:10:02.210Z,985.59
2016-10-29T06:11:10.907Z,985.46
2016-10-29T06:12:19.603Z,985.44
2016-10-29T06:13:28.654Z,985.46
2016-10-29T06:14:37.352Z,985.43
2016-10-29T06:15:46.046Z,985.62
2016-10-29T06:16:54.747Z,985.49
2016-10-29T06:18:03.437Z,985.48
2016-10-29T06:19:12.133Z,985.49
2016-10-29T06:20:20.829Z,985.61
2016-10-29T06:21:29.526Z,985.63
2016-10-29T06:22:38.220Z,985.55
2016-10-29T06:23:46.920Z,985.6
2016-10-29T06:24:55.614Z,985.58
2016-10-29T06:26:04.313Z,985.62
2016-10-29T06:27:13.010Z,985.64
2016-10-29T06:28:21.708Z,985.57
2016-10-29T06:29:30.408Z,985.54
2016-10-29T06:30:39.104Z,985.57
2016-10-29T06:31:47.799Z,985.55
2016-10-29T06:32:56.599Z,985.53
2016-10-29T06:34:05.292Z,985.58
2016-10-29T06:35:13.994Z,985.65
2016-10-29T06:36:22.685Z,985.67
2016-10-29T06:37:31.388Z,985.72
2016-10-29T06:38:40.087Z,985.71
2016-10-29T06:39:49.099Z,985.63
2016-10-29T06:40:57.806Z,985.66
2016-10-29T06:42:06.498Z,985.61
2016-10-29T06:43:15.192Z,985.57
2016-10-29T06:44:23.888Z,985.51
2016-10-29T06:45:32.625Z,985.55
2016-10-29T06:46:41.363Z,985.54
2016-10-29T06:47:50.053Z,985.52
2016-10-29T06:48:58.752Z,985.5
2016-10-29T06:50:07.463Z,985.49
2016-10-29T06:51:16.161Z,985.5
2016-10-29T06:52:24.893Z,985.55
2016-10-29T06:53:33.591Z,985.51
2016-10-29T06:54:42.290Z,985.51
2016-10-29T06:55:50.994Z,985.56
2016-10-29T06:56:59.688Z,985.55
2016-10-29T06:58:08.395Z,985.66
2016-10-29T06:59:17.117Z,985.66
2016-10-29T07:00:25.819Z,985.62
2016-10-29T07:01:34.561Z,985.7
2016-10-29T07:02:43.258Z,985.73
2016-10-29T07:03:51.951Z,985.78
2016-10-29T07:05:00.648Z,985.78
2016-10-29T07:06:09.391Z,985.86
2016-10-29T07:07:18.084Z,985.87
2016-10-29T07:08:26.784Z,985.81
2016-10-29T07:09:35.510Z,985.84
2016-10-29T07:10:44.209Z,985.87
2016-10-29T07:11:52.906Z,985.96
2016-10-29T07:13:01.848Z,986.02
2016-10-29T07:14:10.542Z,986.02
2016-10-29T07:15:19.235Z,986.09
2016-10-29T07:16:27.932Z,986.09
2016-10-29T07:17:36.634Z,986.14
2016-10-29T07:18:45.330Z,986.17
2016-10-29T07:19:54.023Z,986.22
2016-10-29T07:21:02.720Z,986.24
2016-10-29T07:22:11.413Z,986.34
2016-10-29T07:23:20.110Z,986.4
2016-10-29T07:24:28.808Z,986.43
2016-10-29T07:25:37.511Z,986.39
2016-10-29T07:26:46.208Z,986.35
2016-10-29T07:27:54.907Z,986.44
2016-10-29T07:29:03.605Z,986.42
2016-10-29T07:30:12.306Z,986.42
2016-10-29T07:31:21.008Z,986.46
2016-10-29T07:32:29.701Z,986.4
2016-10-29T07:33:38.397Z,986.37
2016-10-29T07:34:47.096Z,986.45
2016-10-29T07:35:55.794Z,986.43
2016-10-29T07:37:04.492Z,986.41
2016-10-29T07:38:13.190Z,986.42
2016-10-29T07:39:21.880Z,986.42
2016-10-29T07:40:30.577Z,986.42
2016-10-29T07:41:39.281Z,986.44
2016-10-29T07:42:47.978Z,986.43
2016-10-29T07:43:56.668Z,986.42
2016-10-29T07:45:05.375Z,986.52
2016-10-29T07:46:14.071Z,986.42
2016-10-29T07:47:22.766Z,986.42
2016-10-29T07:48:31.458Z,986.38
2016-10-29T07:49:40.154Z,986.39
2016-10-29T07:50:48.849Z,986.43
2016-10-29T07:51:57.899Z,986.42
2016-10-29T07:53:06.598Z,986.41
2016-10-29T07:54:15.330Z,986.46
2016-10-29T07:55:24.019Z,986.4
2016-10-29T07:56:32.722Z,986.42
2016-10-29T07:57:41.418Z,986.45
2016-10-29T07:58:50.113Z,986.5
2016-10-29T07:59:58.805Z,986.56
2016-10-29T08:01:07.496Z,986.56
2016-10-29T08:02:16.195Z,986.63
2016-10-29T08:03:24.907Z,986.65
2016-10-29T08:04:33.609Z,986.65
2016-10-29T08:05:42.312Z,986.66
2016-10-29T08:06:51.010Z,986.7
2016-10-29T08:07:59.711Z,986.72
2016-10-29T08:09:08.410Z,986.71
2016-10-29T08:10:17.109Z,986.78
2016-10-29T08:11:25.808Z,986.78
2016-10-29T08:12:34.510Z,986.86
2016-10-29T08:13:43.207Z,986.82
2016-10-29T08:14:51.903Z,986.8
2016-10-29T08:16:00.636Z,986.77
2016-10-29T08:17:09.371Z,986.79
2016-10-29T08:18:18.068Z,986.73
2016-10-29T08:19:26.797Z,986.82
2016-10-29T08:20:35.499Z,986.76
2016-10-29T08:21:44.230Z,986.72
2016-10-29T08:22:52.950Z,986.71
2016-10-29T08:24:01.646Z,986.78
2016-10-29T08:25:10.348Z,986.75
2016-10-29T08:26:19.077Z,986.8
2016-10-29T08:27:27.780Z,986.78
2016-10-29T08:28:36.479Z,986.84
2016-10-29T08:29:45.175Z,986.83
2016-10-29T08:30:53.871Z,986.81
2016-10-29T08:32:02.568Z,986.84
2016-10-29T08:33:11.265Z,986.87
2016-10-29T08:34:19.964Z,986.84
2016-10-29T08:35:28.664Z,986.84
2016-10-29T08:36:37.362Z,986.79
2016-10-29T08:37:46.099Z,986.88
2016-10-29T08:38:55.115Z,986.87
2016-10-29T08:40:03.812Z,986.81
2016-10-29T08:41:12.539Z,986.84
2016-10-29T08:42:21.234Z,986.84
2016-10-29T08:43:29.938Z,986.78
2016-10-29T08:44:38.635Z,986.87
2016-10-29T08:45:47.376Z,986.75
2016-10-29T08:46:56.076Z,986.79
2016-10-29T08:48:04.783Z,986.79
2016-10-29T08:49:13.487Z,986.8
2016-10-29T08:50:22.190Z,986.82
2016-10-29T08:51:30.919Z,986.87
2016-10-29T08:52:39.620Z,986.78
2016-10-29T08:53:48.321Z,986.79
2016-10-29T08:54:57.019Z,986.81
2016-10-29T08:56:05.717Z,986.82
2016-10-29T08:57:14.426Z,986.84
2016-10-29T08:58:23.128Z,986.87
2016-10-29T08:59:31.836Z,986.86
2016-10-29T09:00:40.533Z,986.87
2016-10-29T09:01:49.234Z,986.9
2016-10-29T09:02:57.928Z,986.83
2016-10-29T09:04:06.631Z,986.82
2016-10-29T09:05:15.343Z,986.85
2016-10-29T09:06:24.047Z,986.85
2016-10-29T09:07:32.742Z,986.92
2016-10-29T09:08:41.443Z,987.02
2016-10-29T09:09:50.144Z,986.97
2016-10-29T09:10:58.845Z,986.93
2016-10-29T09:12:07.545Z,987.03
2016-10-29T09:13:16.241Z,986.95
2016-10-29T09:14:24.947Z,986.97
2016-10-29T09:15:33.656Z,986.92
2016-10-29T09:16:42.350Z,986.94
2016-10-29T09:17:51.045Z,987.01
2016-10-29T09:18:59.743Z,986.91
2016-10-29T09:20:08.447Z,986.94
2016-10-29T09:21:17.145Z,986.9
2016-10-29T09:22:25.848Z,986.86
2016-10-29T09:23:34.543Z,986.92
2016-10-29T09:24:43.251Z,986.87
2016-10-29T09:25:51.958Z,986.86
2016-10-29T09:27:00.661Z,986.9
2016-10-29T09:28:09.360Z,986.87
2016-10-29T09:29:18.067Z,986.95
2016-10-29T09:30:26.765Z,986.87
2016-10-29T09:31:35.465Z,986.93
2016-10-29T09:32:44.158Z,986.86
2016-10-29T09:33:52.856Z,986.8
2016-10-29T09:35:01.562Z,986.74
2016-10-29T09:36:10.264Z,986.78
2016-10-29T09:37:18.963Z,986.83
2016-10-29T09:38:27.663Z,986.81
2016-10-29T09:39:36.677Z,986.87
2016-10-29T09:40:45.374Z,986.94
2016-10-29T09:41:54.394Z,986.8
2016-10-29T09:43:03.092Z,986.86
2016-10-29T09:44:11.795Z,986.82
2016-10-29T09:45:20.494Z,986.9
2016-10-29T09:46:29.206Z,986.93
2016-10-29T09:47:37.900Z,986.83
2016-10-29T09:48:46.597Z,986.84
2016-10-29T09:49:55.332Z,986.87
2016-10-29T09:51:04.033Z,986.84
2016-10-29T09:52:12.842Z,986.89
2016-10-29T09:53:21.542Z,986.89
2016-10-29T09:54:30.246Z,986.95
2016-10-29T09:55:38.942Z,986.93
2016-10-29T09:56:47.675Z,987
2016-10-29T09:57:56.372Z,986.93
2016-10-29T09:59:05.077Z,986.91
2016-10-29T10:00:13.778Z,987.11
2016-10-29T10:01:22.482Z,986.97
2016-10-29T10:02:31.199Z,987
2016-10-29T10:03:39.900Z,987.05
2016-10-29T10:04:48.597Z,987.05
2016-10-29T10:05:57.293Z,987.05
2016-10-29T10:07:05.989Z,987.16
2016-10-29T10:08:14.689Z,987.15
2016-10-29T10:09:23.384Z,987.14
2016-10-29T10:10:32.081Z,987.17
2016-10-29T10:11:40.780Z,987.19
2016-10-29T10:12:49.477Z,987.15
2016-10-29T10:13:58.180Z,987.13
2016-10-29T10:15:06.887Z,987.15
2016-10-29T10:16:15.589Z,987.23
2016-10-29T10:17:24.290Z,987.08
2016-10-29T10:18:32.999Z,987.19
2016-10-29T10:19:41.697Z,987.19
2016-10-29T10:20:50.400Z,987.2
2016-10-29T10:21:59.099Z,987.23
2016-10-29T10:23:07.795Z,987.2
2016-10-29T10:24:16.814Z,987.2
2016-10-29T10:25:25.520Z,987.27
2016-10-29T10:26:34.255Z,987.19
2016-10-29T10:27:43.296Z,987.2
2016-10-29T10:28:51.999Z,987.18
2016-10-29T10:30:00.702Z,987.17
2016-10-29T10:31:09.403Z,987.25
2016-10-29T10:32:18.102Z,987.27
2016-10-29T10:33:26.820Z,987.4
2016-10-29T10:34:35.519Z,987.41
2016-10-29T10:35:44.217Z,987.43
2016-10-29T10:36:52.917Z,987.38
2016-10-29T10:38:01.622Z,987.37
2016-10-29T10:39:10.632Z,987.44
2016-10-29T10:40:19.332Z,987.34
2016-10-29T10:41:28.031Z,987.35
2016-10-29T10:42:36.743Z,987.28
2016-10-29T10:43:45.449Z,987.31
2016-10-29T10:44:54.150Z,987.38
2016-10-29T10:46:02.854Z,987.3
2016-10-29T10:47:11.556Z,987.29
2016-10-29T10:48:20.260Z,987.43
2016-10-29T10:49:28.961Z,987.37
2016-10-29T10:50:37.699Z,987.38
2016-10-29T10:51:46.405Z,987.27
2016-10-29T10:52:55.104Z,987.38
2016-10-29T10:54:03.810Z,987.33
2016-10-29T10:55:12.521Z,987.4
2016-10-29T10:56:21.225Z,987.33
2016-10-29T10:57:29.933Z,987.43
2016-10-29T10:58:38.633Z,987.42
2016-10-29T10:59:47.335Z,987.42
2016-10-29T11:00:56.088Z,987.43
2016-10-29T11:02:04.795Z,987.4
2016-10-29T11:03:13.504Z,987.43
2016-10-29T11:04:22.210Z,987.41
2016-10-29T11:05:30.980Z,987.42
2016-10-29T11:06:39.688Z,987.41
2016-10-29T11:07:48.390Z,987.38
2016-10-29T11:08:57.094Z,987.32
2016-10-29T11:10:05.802Z,987.39
2016-10-29T11:11:14.507Z,987.43
2016-10-29T11:12:23.222Z,987.42
2016-10-29T11:13:31.932Z,987.37
2016-10-29T11:14:40.637Z,987.42
2016-10-29T11:15:49.348Z,987.33
2016-10-29T11:16:58.057Z,987.36
2016-10-29T11:18:06.761Z,987.38
2016-10-29T11:19:15.521Z,987.42
2016-10-29T11:20:24.252Z,987.48
2016-10-29T11:21:32.954Z,987.45
2016-10-29T11:22:41.667Z,987.5
2016-10-29T11:23:50.379Z,987.58
2016-10-29T11:24:59.091Z,987.47
2016-10-29T11:26:07.796Z,987.48
2016-10-29T11:27:16.512Z,987.37
2016-10-29T11:28:25.235Z,987.39
2016-10-29T11:29:33.940Z,987.42
2016-10-29T11:30:42.645Z,987.57
2016-10-29T11:31:51.351Z,987.38
2016-10-29T11:33:00.055Z,987.35
2016-10-29T11:34:08.761Z,987.46
2016-10-29T11:35:17.470Z,987.39
2016-10-29T11:36:26.214Z,987.55
2016-10-29T11:37:34.924Z,987.62
2016-10-29T11:38:43.632Z,987.67
2016-10-29T11:39:52.337Z,987.48
2016-10-29T11:41:01.061Z,987.62
2016-10-29T11:42:10.310Z,987.68
2016-10-29T11:43:19.018Z,987.6
2016-10-29T11:44:27.720Z,987.7
2016-10-29T11:45:36.425Z,987.58
2016-10-29T11:46:45.130Z,987.68
2016-10-29T11:47:53.873Z,987.57
2016-10-29T11:49:02.590Z,987.6
2016-10-29T11:50:11.303Z,987.68
2016-10-29T11:51:20.012Z,987.6
2016-10-29T11:52:28.754Z,987.59
2016-10-29T11:53:37.464Z,987.64
2016-10-29T11:54:46.184Z,987.64
2016-10-29T11:55:54.896Z,987.65
2016-10-29T11:57:03.605Z,987.7
2016-10-29T11:58:12.313Z,987.77
2016-10-29T11:59:21.025Z,987.74
2016-10-29T12:00:29.732Z,987.88
2016-10-29T12:01:38.448Z,987.75
2016-10-29T12:02:47.156Z,987.75
2016-10-29T12:03:55.905Z,987.8
2016-10-29T12:05:04.616Z,987.8
2016-10-29T12:06:13.328Z,987.9
2016-10-29T12:07:22.039Z,987.83
2016-10-29T12:08:30.748Z,987.83
2016-10-29T12:09:39.458Z,987.82
2016-10-29T12:10:48.171Z,987.78
2016-10-29T12:11:56.883Z,987.84
2016-10-29T12:13:05.612Z,987.82
2016-10-29T12:14:14.318Z,988
2016-10-29T12:15:23.031Z,987.95
2016-10-29T12:16:31.742Z,987.93
2016-10-29T12:17:40.497Z,987.98
2016-10-29T12:18:49.209Z,987.87
2016-10-29T12:19:58.459Z,987.95
2016-10-29T12:21:07.168Z,987.97
2016-10-29T12:22:15.877Z,988
2016-10-29T12:23:24.592Z,988.03
2016-10-29T12:24:33.337Z,988.05
2016-10-29T12:25:42.045Z,987.98
2016-10-29T12:26:50.761Z,987.98
2016-10-29T12:27:59.510Z,988.12
2016-10-29T12:29:08.549Z,988.1
2016-10-29T12:30:17.258Z,988.05
2016-10-29T12:31:25.979Z,988.09
2016-10-29T12:32:34.685Z,988.1
2016-10-29T12:33:43.396Z,988.11
2016-10-29T12:34:52.107Z,988.12
2016-10-29T12:36:00.827Z,988.14
2016-10-29T12:37:09.546Z,988.12
2016-10-29T12:38:18.268Z,988.2
2016-10-29T12:39:26.974Z,988.11
2016-10-29T12:40:35.686Z,988.19
2016-10-29T12:41:44.393Z,988.15
2016-10-29T12:42:53.107Z,988.09
2016-10-29T12:44:01.819Z,988.03
2016-10-29T12:45:10.527Z,988.12
2016-10-29T12:46:19.258Z,988.06
2016-10-29T12:47:27.979Z,987.99
2016-10-29T12:48:36.727Z,988.01
2016-10-29T12:49:45.444Z,988.09
2016-10-29T12:50:54.156Z,988.06
2016-10-29T12:52:02.916Z,988.09
2016-10-29T12:53:11.635Z,988.14
2016-10-29T12:54:20.350Z,988.09
2016-10-29T12:55:29.099Z,988.17
2016-10-29T12:56:37.811Z,988.14
2016-10-29T12:57:46.568Z,988.19
2016-10-29T12:58:55.278Z,988.18
2016-10-29T13:00:03.984Z,988.16
2016-10-29T13:01:12.699Z,988.17
2016-10-29T13:02:21.754Z,988.15
2016-10-29T13:03:30.785Z,988.11
2016-10-29T13:04:39.498Z,988.2
2016-10-29T13:05:48.211Z,988.16
2016-10-29T13:06:56.924Z,988.19
2016-10-29T13:08:05.630Z,988.12
2016-10-29T13:09:14.336Z,988.17
2016-10-29T13:10:23.045Z,988.17
2016-10-29T13:11:31.748Z,988.04
2016-10-29T13:12:40.456Z,988.04
2016-10-29T13:13:49.204Z,988.07
2016-10-29T13:14:58.245Z,988.09
2016-10-29T13:16:07.276Z,988.15
2016-10-29T13:17:15.978Z,988.06
2016-10-29T13:18:24.684Z,988.2
2016-10-29T13:19:33.385Z,988.15
2016-10-29T13:20:42.088Z,988.22
2016-10-29T13:21:50.823Z,988.24
2016-10-29T13:22:59.531Z,988.25
2016-10-29T13:24:08.235Z,988.26
2016-10-29T13:25:16.937Z,988.23
2016-10-29T13:26:25.642Z,988.29
2016-10-29T13:27:34.352Z,988.26
2016-10-29T13:28:43.058Z,988.09
2016-10-29T13:29:51.765Z,988.24
2016-10-29T13:31:00.568Z,988.18
2016-10-29T13:32:09.275Z,988.37
2016-10-29T13:33:17.989Z,988.24
2016-10-29T13:34:26.708Z,988.26
2016-10-29T13:35:35.415Z,988.22
2016-10-29T13:36:44.118Z,988.31
2016-10-29T13:37:52.823Z,988.24
2016-10-29T13:39:01.529Z,988.25
2016-10-29T13:40:10.234Z,988.28
2016-10-29T13:41:18.936Z,988.38
2016-10-29T13:42:27.642Z,988.29
2016-10-29T13:43:36.660Z,988.24
2016-10-29T13:44:45.360Z,988.23
2016-10-29T13:45:54.065Z,988.19
2016-10-29T13:47:02.767Z,988.14
2016-10-29T13:48:11.473Z,988.06
2016-10-29T13:49:20.186Z,988.12
2016-10-29T13:50:28.898Z,988.08
2016-10-29T13:51:37.916Z,988.24
2016-10-29T13:52:46.622Z,988.12
2016-10-29T13:53:55.328Z,988.2
2016-10-29T13:55:04.027Z,988.07
2016-10-29T13:56:12.730Z,988.12
2016-10-29T13:57:21.434Z,987.95
2016-10-29T13:58:30.142Z,988.17
2016-10-29T13:59:38.847Z,988.09
2016-10-29T14:00:47.552Z,988.07
2016-10-29T14:01:56.258Z,988.04
2016-10-29T14:03:04.961Z,988.06
2016-10-29T14:04:13.665Z,988.1
2016-10-29T14:05:22.691Z,987.98
2016-10-29T14:06:31.427Z,987.92
2016-10-29T14:07:40.137Z,987.93
2016-10-29T14:08:48.845Z,987.78
2016-10-29T14:09:57.581Z,987.79
2016-10-29T14:11:06.283Z,987.87
2016-10-29T14:12:14.985Z,987.99
2016-10-29T14:13:23.695Z,987.81
2016-10-29T14:14:32.397Z,987.74
2016-10-29T14:15:41.096Z,987.76
2016-10-29T14:16:49.793Z,987.82
2016-10-29T14:17:58.488Z,987.81
2016-10-29T14:19:07.504Z,987.75
2016-10-29T14:20:16.201Z,987.79